Time;durP1;ratioP1;P1;durP2;ratioP2;P2;SDS_P1;SDS_P2;PMS_P1;PMS_P2;Temp;Humidity;BMP_temperature;BMP_pressure;BME280_temperature;BME280_humidity;BME280_pressure;Samples;Min_cycle;Max_cycle;Signal;HPM_P1;HPM_P2
2023/06/10 00:00:05;;;;;;;8.50;5.12;;;;;;;;;;4237058;33;20054;-78
2023/06/10 02:02:41;;;;;;;7.72;5.53;;;;;;;;;;4273774;33;20041;-78
2023/06/10 02:05:08;;;;;;;8.88;6.18;;;;;;;;;;4279988;33;20073;-79
2023/06/10 02:07:34;;;;;;;8.43;6.45;;;;;;;;;;4280194;33;20060;-78
2023/06/10 02:10:00;;;;;;;7.37;6.47;;;;;;;;;;4279886;33;20104;-78
2023/06/10 02:12:29;;;;;;;11.75;6.97;;;;;;;;;;4281851;33;20054;-75
2023/06/10 02:14:54;;;;;;;9.55;6.57;;;;;;;;;;4281893;33;20037;-80
2023/06/10 02:17:23;;;;;;;7.12;5.95;;;;;;;;;;4282055;33;20069;-79
2023/06/10 02:19:52;;;;;;;16.73;7.85;;;;;;;;;;4282925;33;20443;-80
2023/06/10 02:22:22;;;;;;;9.40;6.60;;;;;;;;;;4282798;33;20054;-79
2023/06/10 02:24:49;;;;;;;8.32;6.72;;;;;;;;;;4279394;33;20041;-78
2023/06/10 02:27:15;;;;;;;11.52;7.30;;;;;;;;;;4282198;33;20103;-77
2023/06/10 02:29:41;;;;;;;10.82;7.00;;;;;;;;;;4281216;33;20040;-79
2023/06/10 02:32:08;;;;;;;12.88;7.10;;;;;;;;;;4253860;33;20101;-77
2023/06/10 02:34:42;;;;;;;13.52;7.75;;;;;;;;;;4240871;33;20038;-79
2023/06/10 02:37:09;;;;;;;11.88;7.65;;;;;;;;;;4238989;33;20061;-80
2023/06/10 02:39:35;;;;;;;9.23;7.32;;;;;;;;;;4239691;33;20026;-79
2023/06/10 02:42:02;;;;;;;18.55;7.68;;;;;;;;;;4239820;33;20080;-79
2023/06/10 02:44:28;;;;;;;12.23;8.40;;;;;;;;;;4239498;33;20073;-78
2023/06/10 02:46:55;;;;;;;12.23;7.87;;;;;;;;;;4237673;33;20474;-78
2023/06/10 02:49:21;;;;;;;13.62;7.47;;;;;;;;;;4252498;33;20434;-79
2023/06/10 02:51:48;;;;;;;12.95;7.53;;;;;;;;;;4252708;33;20081;-80
2023/06/10 02:54:16;;;;;;;13.60;8.35;;;;;;;;;;4252771;33;20042;-80
2023/06/10 02:56:43;;;;;;;8.70;7.57;;;;;;;;;;4253802;33;20050;-80
2023/06/10 02:59:11;;;;;;;12.70;7.85;;;;;;;;;;4251844;33;20049;-79
2023/06/10 03:01:38;;;;;;;11.65;8.50;;;;;;;;;;4252502;33;20050;-80
2023/06/10 03:04:04;;;;;;;13.05;8.32;;;;;;;;;;4265424;33;20038;-81
2023/06/10 03:06:35;;;;;;;12.70;8.25;;;;;;;;;;4267576;33;20476;-82
2023/06/10 03:09:04;;;;;;;12.23;8.15;;;;;;;;;;4266183;33;20055;-83
2023/06/10 03:11:31;;;;;;;11.75;9.15;;;;;;;;;;4267306;33;20080;-80
2023/06/10 03:13:57;;;;;;;10.13;8.15;;;;;;;;;;4267344;33;20060;-82
2023/06/10 03:16:25;;;;;;;10.30;8.50;;;;;;;;;;4267398;33;20042;-80
2023/06/10 03:18:51;;;;;;;11.45;8.60;;;;;;;;;;4263991;33;20083;-80
2023/06/10 03:21:18;;;;;;;11.48;8.75;;;;;;;;;;4252895;33;20400;-79
2023/06/10 03:23:45;;;;;;;13.50;8.13;;;;;;;;;;4264355;33;20033;-80
2023/06/10 03:26:12;;;;;;;10.63;7.95;;;;;;;;;;4256199;33;20058;-80
2023/06/10 03:28:39;;;;;;;9.90;7.87;;;;;;;;;;4253284;33;20034;-77
2023/06/10 03:31:06;;;;;;;15.05;7.60;;;;;;;;;;4253094;33;20469;-80
2023/06/10 03:33:32;;;;;;;11.45;8.10;;;;;;;;;;4253991;33;20412;-80
2023/06/10 03:35:59;;;;;;;14.07;8.10;;;;;;;;;;4254786;33;20494;-80
2023/06/10 03:38:25;;;;;;;12.55;7.82;;;;;;;;;;4253499;33;20443;-80
2023/06/10 03:40:53;;;;;;;14.35;8.25;;;;;;;;;;4251344;33;20089;-76
2023/06/10 03:43:20;;;;;;;11.85;7.95;;;;;;;;;;4251859;33;20072;-79
2023/06/10 03:45:48;;;;;;;11.05;7.20;;;;;;;;;;4265694;33;20484;-79
2023/06/10 03:48:15;;;;;;;12.43;6.87;;;;;;;;;;4267425;33;20144;-78
2023/06/10 03:50:42;;;;;;;8.20;5.97;;;;;;;;;;4267165;33;20041;-78
2023/06/10 03:53:07;;;;;;;7.95;6.55;;;;;;;;;;4279281;33;20099;-79
2023/06/10 03:55:36;;;;;;;10.95;6.30;;;;;;;;;;4294677;33;20057;-78
2023/06/10 03:58:02;;;;;;;20.40;6.00;;;;;;;;;;4295304;33;20076;-81
2023/06/10 04:00:29;;;;;;;20.75;6.62;;;;;;;;;;4283319;33;20098;-78
2023/06/10 04:02:57;;;;;;;9.65;7.32;;;;;;;;;;4294156;33;20053;-79
2023/06/10 04:05:25;;;;;;;17.15;6.72;;;;;;;;;;4266114;33;20054;-79
2023/06/10 04:07:52;;;;;;;8.65;6.18;;;;;;;;;;4264841;33;20046;-80
2023/06/10 04:10:25;;;;;;;16.35;6.25;;;;;;;;;;4265833;33;20061;-80
2023/06/10 04:12:51;;;;;;;11.98;5.75;;;;;;;;;;4265414;33;20469;-76
2023/06/10 04:15:18;;;;;;;13.32;6.85;;;;;;;;;;4266165;33;20087;-80
2023/06/10 04:17:44;;;;;;;12.23;6.28;;;;;;;;;;4265561;33;20063;-78
2023/06/10 04:20:11;;;;;;;12.23;7.57;;;;;;;;;;4266602;33;20121;-79
2023/06/10 04:22:38;;;;;;;12.10;6.47;;;;;;;;;;4265624;33;20081;-81
2023/06/10 04:25:04;;;;;;;9.90;6.03;;;;;;;;;;4264280;33;20062;-78
2023/06/10 04:27:31;;;;;;;7.68;5.45;;;;;;;;;;4266479;33;20053;-80
2023/06/10 04:29:57;;;;;;;10.05;5.80;;;;;;;;;;4266383;33;20433;-80
2023/06/10 04:32:23;;;;;;;14.38;5.47;;;;;;;;;;4265818;33;20093;-79
2023/06/10 04:34:50;;;;;;;12.35;4.87;;;;;;;;;;4263979;33;20072;-78
2023/06/10 04:37:18;;;;;;;9.13;5.25;;;;;;;;;;4289989;33;20113;-79
2023/06/10 04:39:44;;;;;;;9.57;4.55;;;;;;;;;;4295234;33;20516;-80
2023/06/10 04:42:11;;;;;;;13.57;5.00;;;;;;;;;;4294607;33;20059;-79
2023/06/10 04:44:38;;;;;;;8.13;4.47;;;;;;;;;;4295248;33;20056;-78
2023/06/10 04:47:07;;;;;;;4.65;4.12;;;;;;;;;;4293734;33;20045;-79
2023/06/10 04:49:34;;;;;;;5.43;4.47;;;;;;;;;;4297490;33;20946;-79
2023/06/10 04:52:04;;;;;;;8.15;3.97;;;;;;;;;;4297902;33;20094;-77
2023/06/10 04:54:33;;;;;;;6.87;3.65;;;;;;;;;;4297134;33;20052;-80
2023/06/10 04:57:00;;;;;;;13.20;4.10;;;;;;;;;;4295608;33;20053;-76
2023/06/10 04:59:26;;;;;;;6.65;3.75;;;;;;;;;;4280607;33;20067;-78
2023/06/10 05:01:52;;;;;;;6.10;4.03;;;;;;;;;;4278833;33;20067;-79
2023/06/10 05:04:19;;;;;;;13.00;4.93;;;;;;;;;;4295036;33;20061;-80
2023/06/10 05:06:45;;;;;;;7.70;4.45;;;;;;;;;;4294698;33;20195;-78
2023/06/10 05:09:11;;;;;;;7.95;4.18;;;;;;;;;;4292722;33;20044;-78
2023/06/10 05:11:37;;;;;;;5.85;4.30;;;;;;;;;;4294763;33;20100;-78
2023/06/10 05:14:03;;;;;;;12.10;4.12;;;;;;;;;;4294811;33;20055;-78
2023/06/10 05:16:29;;;;;;;6.68;3.80;;;;;;;;;;4288107;33;20533;-79
2023/06/10 05:18:56;;;;;;;8.85;4.00;;;;;;;;;;4264693;33;20078;-79
2023/06/10 05:21:22;;;;;;;9.55;4.12;;;;;;;;;;4265341;33;20067;-75
2023/06/10 05:23:49;;;;;;;9.85;4.18;;;;;;;;;;4263505;33;20119;-78
2023/06/10 05:26:21;;;;;;;10.55;4.75;;;;;;;;;;4265842;33;20077;-78
2023/06/10 05:28:48;;;;;;;11.77;4.30;;;;;;;;;;4264339;33;20116;-76
2023/06/10 05:31:14;;;;;;;9.32;4.00;;;;;;;;;;4276839;33;20101;-79
2023/06/10 05:33:41;;;;;;;7.43;4.07;;;;;;;;;;4278192;33;20065;-79
2023/06/10 05:36:07;;;;;;;5.03;3.55;;;;;;;;;;4279743;33;20491;-81
2023/06/10 05:38:34;;;;;;;6.22;3.92;;;;;;;;;;4286768;33;20212;-79
2023/06/10 05:41:00;;;;;;;7.37;4.43;;;;;;;;;;4285886;33;20448;-83
2023/06/10 05:43:26;;;;;;;6.72;3.45;;;;;;;;;;4290486;33;20040;-83
2023/06/10 05:45:52;;;;;;;6.95;4.05;;;;;;;;;;4291920;33;20442;-81
2023/06/10 05:48:22;;;;;;;10.40;3.62;;;;;;;;;;4293747;33;20037;-86
2023/06/10 05:50:48;;;;;;;6.40;3.55;;;;;;;;;;4293500;33;20026;-82
2023/06/10 05:53:15;;;;;;;11.30;3.83;;;;;;;;;;4276439;33;20060;-85
2023/06/10 05:55:42;;;;;;;5.12;3.58;;;;;;;;;;4264413;33;20436;-84
2023/06/10 05:58:08;;;;;;;15.20;3.92;;;;;;;;;;4247092;33;20053;-80
2023/06/10 06:00:35;;;;;;;12.68;4.40;;;;;;;;;;4251203;33;20166;-81
2023/06/10 06:03:01;;;;;;;8.35;4.37;;;;;;;;;;4251211;33;20459;-80
2023/06/10 06:05:27;;;;;;;14.35;4.05;;;;;;;;;;4250243;33;20072;-79
2023/06/10 06:07:53;;;;;;;10.23;3.83;;;;;;;;;;4251137;33;20075;-82
2023/06/10 06:10:20;;;;;;;12.37;4.30;;;;;;;;;;4249395;33;20050;-82
2023/06/10 06:12:46;;;;;;;16.00;5.45;;;;;;;;;;4250111;33;20072;-78
2023/06/10 06:15:12;;;;;;;10.15;4.90;;;;;;;;;;4265853;33;20400;-82
2023/06/10 06:17:38;;;;;;;11.90;3.97;;;;;;;;;;4264939;33;20584;-79
2023/06/10 06:20:05;;;;;;;8.90;3.62;;;;;;;;;;4265427;33;20057;-80
2023/06/10 06:22:31;;;;;;;7.90;3.92;;;;;;;;;;4263112;33;20042;-79
2023/06/10 06:24:57;;;;;;;11.18;3.80;;;;;;;;;;4265974;33;20077;-80
2023/06/10 06:27:23;;;;;;;18.10;3.97;;;;;;;;;;4265759;33;20071;-79
2023/06/10 06:29:50;;;;;;;6.90;4.47;;;;;;;;;;4265686;33;20063;-79
2023/06/10 06:32:17;;;;;;;8.13;3.58;;;;;;;;;;4269769;33;20075;-79
2023/06/10 06:34:42;;;;;;;6.15;3.80;;;;;;;;;;4269034;33;20042;-80
2023/06/10 06:37:09;;;;;;;6.25;3.60;;;;;;;;;;4297060;33;20053;-79
2023/06/10 06:39:36;;;;;;;8.95;4.07;;;;;;;;;;4296304;33;20079;-79
2023/06/10 06:42:03;;;;;;;7.93;4.03;;;;;;;;;;4297136;33;20050;-78
2023/06/10 06:44:36;;;;;;;6.18;3.47;;;;;;;;;;4293399;33;20033;-77
2023/06/10 06:47:03;;;;;;;6.53;3.62;;;;;;;;;;4293176;33;20079;-79
2023/06/10 06:49:30;;;;;;;7.53;3.33;;;;;;;;;;4295034;33;20041;-79
2023/06/10 06:51:56;;;;;;;11.80;4.47;;;;;;;;;;4280168;33;20067;-79
2023/06/10 06:54:22;;;;;;;10.25;4.35;;;;;;;;;;4277732;33;20042;-77
2023/06/10 06:56:48;;;;;;;8.80;3.97;;;;;;;;;;4281659;33;20602;-77
2023/06/10 06:59:14;;;;;;;10.07;4.35;;;;;;;;;;4281398;33;20136;-79
2023/06/10 07:01:41;;;;;;;5.00;3.78;;;;;;;;;;4287884;33;20057;-79
2023/06/10 07:04:07;;;;;;;6.20;3.83;;;;;;;;;;4263706;33;20105;-77
2023/06/10 07:06:33;;;;;;;7.70;4.35;;;;;;;;;;4265692;33;20388;-81
2023/06/10 07:08:59;;;;;;;10.55;3.95;;;;;;;;;;4263705;33;20057;-79
2023/06/10 07:11:31;;;;;;;8.35;3.97;;;;;;;;;;4266860;33;20053;-84
2023/06/10 07:13:57;;;;;;;9.80;3.95;;;;;;;;;;4267699;33;20602;-81
2023/06/10 07:16:24;;;;;;;9.88;3.70;;;;;;;;;;4253582;33;20480;-81
2023/06/10 07:18:50;;;;;;;11.10;4.25;;;;;;;;;;4236861;33;20059;-79
2023/06/10 07:21:16;;;;;;;7.82;4.18;;;;;;;;;;4234499;33;20046;-78
2023/06/10 07:23:43;;;;;;;7.53;4.32;;;;;;;;;;4226448;33;20051;-82
2023/06/10 07:26:10;;;;;;;6.78;3.65;;;;;;;;;;4223394;33;20484;-84
2023/06/10 07:28:43;;;;;;;16.02;4.15;;;;;;;;;;4224628;34;20060;-84
2023/06/10 07:31:11;;;;;;;12.02;4.50;;;;;;;;;;4219839;33;20097;-83
2023/06/10 07:33:39;;;;;;;8.57;3.65;;;;;;;;;;4225138;33;20070;-88
2023/06/10 07:36:05;;;;;;;6.05;4.40;;;;;;;;;;4220999;33;20170;-81
2023/06/10 07:38:32;;;;;;;7.70;4.53;;;;;;;;;;4191368;34;20085;-80
2023/06/10 07:40:58;;;;;;;6.87;4.60;;;;;;;;;;4190290;34;20534;-82
2023/06/10 07:43:24;;;;;;;13.57;3.67;;;;;;;;;;4193614;34;20107;-77
2023/06/10 07:45:51;;;;;;;6.93;4.50;;;;;;;;;;4196538;34;20265;-89
2023/06/10 07:48:17;;;;;;;6.00;3.80;;;;;;;;;;4210478;34;20103;-86
2023/06/10 07:50:43;;;;;;;8.10;4.47;;;;;;;;;;4229779;33;20043;-89
2023/06/10 07:53:09;;;;;;;10.52;4.60;;;;;;;;;;4183122;34;20090;-88
2023/06/10 07:55:36;;;;;;;8.07;4.70;;;;;;;;;;4181033;34;20047;-77
2023/06/10 07:58:02;;;;;;;6.68;4.03;;;;;;;;;;4183856;34;20070;-90
2023/06/10 08:00:28;;;;;;;10.40;4.35;;;;;;;;;;4183772;34;20070;-90
2023/06/10 08:02:55;;;;;;;6.35;3.62;;;;;;;;;;4170117;34;20041;-89
2023/06/10 08:05:22;;;;;;;4.45;3.85;;;;;;;;;;4167577;34;20471;-85
2023/06/10 08:07:48;;;;;;;7.37;3.55;;;;;;;;;;4180386;34;20095;-74
2023/06/10 08:10:14;;;;;;;6.07;3.80;;;;;;;;;;4201755;34;20087;-88
2023/06/10 08:12:40;;;;;;;10.30;3.50;;;;;;;;;;4212154;34;20142;-88
2023/06/10 08:15:07;;;;;;;6.03;3.70;;;;;;;;;;4203908;34;20058;-92
2023/06/10 08:17:33;;;;;;;4.40;3.37;;;;;;;;;;4198493;34;20061;-88
2023/06/10 08:20:00;;;;;;;8.82;3.70;;;;;;;;;;4197185;34;20076;-76
2023/06/10 08:22:26;;;;;;;4.20;3.65;;;;;;;;;;4189712;34;20356;-91
2023/06/10 08:24:53;;;;;;;3.20;3.00;;;;;;;;;;4186738;34;20100;-85
2023/06/10 08:27:19;;;;;;;3.60;3.30;;;;;;;;;;4195320;34;20032;-79
2023/06/10 08:29:45;;;;;;;5.43;3.37;;;;;;;;;;4189103;34;20082;-80
2023/06/10 08:32:11;;;;;;;6.18;2.97;;;;;;;;;;4196143;34;20043;-74
2023/06/10 08:34:37;;;;;;;9.98;3.20;;;;;;;;;;4226621;34;20058;-87
2023/06/10 08:37:04;;;;;;;6.93;3.60;;;;;;;;;;4248684;33;20090;-84
2023/06/10 08:39:31;;;;;;;3.70;3.37;;;;;;;;;;4230908;34;20106;-82
2023/06/10 08:42:00;;;;;;;8.55;3.45;;;;;;;;;;4222114;34;20117;-84
2023/06/10 08:44:28;;;;;;;7.43;3.83;;;;;;;;;;4238906;33;20058;-89
2023/06/10 08:46:56;;;;;;;7.47;3.40;;;;;;;;;;4257936;33;20081;-85
2023/06/10 08:49:23;;;;;;;5.82;3.10;;;;;;;;;;4264958;33;20034;-79
2023/06/10 08:51:54;;;;;;;7.60;4.30;;;;;;;;;;4262141;33;20185;-87
2023/06/10 08:54:21;;;;;;;9.05;3.22;;;;;;;;;;4255608;33;20067;-81
2023/06/10 08:56:49;;;;;;;11.65;3.90;;;;;;;;;;4265343;33;20927;-77
2023/06/10 08:59:22;;;;;;;5.20;3.85;;;;;;;;;;4240938;33;20079;-80
2023/06/10 09:01:49;;;;;;;5.37;3.17;;;;;;;;;;4235481;33;20646;-78
2023/06/10 09:04:17;;;;;;;5.37;3.55;;;;;;;;;;4238755;34;20078;-78
2023/06/10 09:06:44;;;;;;;3.00;2.55;;;;;;;;;;4237509;34;20086;-79
2023/06/10 09:09:11;;;;;;;5.60;3.85;;;;;;;;;;4235849;33;20062;-81
2023/06/10 09:11:38;;;;;;;6.90;3.00;;;;;;;;;;4233736;33;20162;-80
2023/06/10 09:14:04;;;;;;;8.32;2.85;;;;;;;;;;4233295;33;20098;-81
2023/06/10 09:16:30;;;;;;;4.65;3.15;;;;;;;;;;4235357;34;20102;-73
2023/06/10 09:18:56;;;;;;;3.78;2.80;;;;;;;;;;4233047;33;20127;-81
2023/06/10 09:21:23;;;;;;;3.67;3.17;;;;;;;;;;4240226;33;20100;-81
2023/06/10 09:23:49;;;;;;;8.63;3.33;;;;;;;;;;4199720;34;20479;-88
2023/06/10 09:26:15;;;;;;;3.05;2.83;;;;;;;;;;4195283;34;20065;-87
2023/06/10 09:28:47;;;;;;;4.20;2.85;;;;;;;;;;4193990;34;20110;-88
2023/06/10 09:31:13;;;;;;;14.80;3.40;;;;;;;;;;4195141;34;20406;-85
2023/06/10 09:33:40;;;;;;;3.20;2.87;;;;;;;;;;4194924;34;20069;-87
2023/06/10 09:36:21;;;;;;;6.45;2.58;;;;;;;;;;4212812;34;20050;-86
2023/06/10 09:38:49;;;;;;;6.10;2.83;;;;;;;;;;4226509;33;20042;-85
2023/06/10 09:41:15;;;;;;;4.45;3.33;;;;;;;;;;4236808;33;20059;-85
2023/06/10 09:43:42;;;;;;;6.47;2.75;;;;;;;;;;4237899;33;20084;-87
2023/06/10 09:46:18;;;;;;;4.85;2.40;;;;;;;;;;4240138;33;20111;-82
2023/06/10 09:48:45;;;;;;;12.02;3.03;;;;;;;;;;4242320;33;20076;-81
2023/06/10 09:51:12;;;;;;;2.62;2.42;;;;;;;;;;4236423;33;20043;-84
2023/06/10 09:53:38;;;;;;;4.95;3.30;;;;;;;;;;4235974;33;20111;-87
2023/06/10 09:56:05;;;;;;;8.45;3.28;;;;;;;;;;4266865;33;20148;-76
2023/06/10 09:58:38;;;;;;;11.57;2.97;;;;;;;;;;4262053;33;20048;-86
2023/06/10 10:01:05;;;;;;;3.45;2.33;;;;;;;;;;4264276;33;20042;-90
2023/06/10 10:03:33;;;;;;;4.35;3.08;;;;;;;;;;4249210;33;20122;-85
2023/06/10 10:06:02;;;;;;;3.03;2.40;;;;;;;;;;4251186;33;20050;-87
2023/06/10 10:08:28;;;;;;;10.73;2.80;;;;;;;;;;4252871;33;20507;-82
2023/06/10 10:10:56;;;;;;;7.90;2.67;;;;;;;;;;4263906;33;20534;-88
2023/06/10 10:13:23;;;;;;;4.37;2.72;;;;;;;;;;4265522;33;20030;-87
2023/06/10 10:15:49;;;;;;;6.15;2.47;;;;;;;;;;4254475;33;20026;-84
2023/06/10 10:18:18;;;;;;;8.23;3.00;;;;;;;;;;4249067;33;20877;-82
2023/06/10 10:20:49;;;;;;;7.32;2.80;;;;;;;;;;4266065;33;20085;-87
2023/06/10 10:23:21;;;;;;;2.87;2.50;;;;;;;;;;4265547;33;20041;-82
2023/06/10 10:25:51;;;;;;;6.47;2.42;;;;;;;;;;4275994;33;20071;-86
2023/06/10 10:28:19;;;;;;;19.40;2.75;;;;;;;;;;4265159;33;20106;-88
2023/06/10 10:30:48;;;;;;;8.13;2.95;;;;;;;;;;4238525;33;20073;-84
2023/06/10 10:33:35;;;;;;;8.55;3.10;;;;;;;;;;4246905;33;20050;-84
2023/06/10 10:36:01;;;;;;;7.78;3.03;;;;;;;;;;4274339;33;20054;-83
2023/06/10 10:38:28;;;;;;;5.22;3.25;;;;;;;;;;4269272;33;20399;-80
2023/06/10 10:40:55;;;;;;;2.87;2.70;;;;;;;;;;4268148;33;20034;-84
2023/06/10 10:43:22;;;;;;;3.97;2.28;;;;;;;;;;4268167;33;20060;-86
2023/06/10 10:46:11;;;;;;;3.33;2.78;;;;;;;;;;4265907;33;20142;-81
2023/06/10 10:48:39;;;;;;;2.50;2.30;;;;;;;;;;4282285;33;20092;-83
2023/06/10 10:51:05;;;;;;;13.38;3.28;;;;;;;;;;4273083;33;20037;-84
2023/06/10 10:53:31;;;;;;;3.72;2.58;;;;;;;;;;4294893;33;20074;-84
2023/06/10 10:56:07;;;;;;;3.83;2.72;;;;;;;;;;4297171;33;20045;-87
2023/06/10 10:58:34;;;;;;;3.75;2.67;;;;;;;;;;4295923;33;20059;-83
2023/06/10 11:01:10;;;;;;;6.85;2.83;;;;;;;;;;4452662;27;20837;-87
2023/06/10 11:03:42;;;;;;;6.62;2.60;;;;;;;;;;4291607;33;20087;-80
2023/06/10 11:06:12;;;;;;;2.78;2.40;;;;;;;;;;4292100;33;20507;-84
2023/06/10 11:08:41;;;;;;;2.90;2.70;;;;;;;;;;4294079;33;20036;-87
2023/06/10 11:11:27;;;;;;;4.55;2.83;;;;;;;;;;4294001;33;20075;-75
2023/06/10 11:14:06;;;;;;;5.62;2.85;;;;;;;;;;4285515;33;20063;-85
2023/06/10 11:16:39;;;;;;;1.50;1.40;;;;;;;;;;4283214;33;20396;-84
2023/06/10 11:19:06;;;;;;;3.78;2.60;;;;;;;;;;4280769;33;20033;-83
2023/06/10 11:21:32;;;;;;;7.45;3.20;;;;;;;;;;4294718;33;20033;-85
2023/06/10 11:23:58;;;;;;;5.80;3.03;;;;;;;;;;4292949;33;20063;-84
2023/06/10 11:26:31;;;;;;;4.25;3.42;;;;;;;;;;4294279;33;20053;-85
2023/06/10 11:28:57;;;;;;;5.95;2.70;;;;;;;;;;4293604;33;20555;-85
2023/06/10 11:31:24;;;;;;;3.80;2.90;;;;;;;;;;4295263;33;20233;-90
2023/06/10 11:33:56;;;;;;;4.43;3.00;;;;;;;;;;4286675;33;20041;-85
2023/06/10 11:36:23;;;;;;;8.85;3.08;;;;;;;;;;4270951;33;20034;-87
2023/06/10 11:38:49;;;;;;;4.97;3.30;;;;;;;;;;4279981;33;20046;-78
2023/06/10 11:41:17;;;;;;;7.20;2.45;;;;;;;;;;4284695;33;20990;-88
2023/06/10 11:43:46;;;;;;;6.87;2.83;;;;;;;;;;4293073;33;20048;-87
2023/06/10 11:46:15;;;;;;;7.50;2.87;;;;;;;;;;4312350;33;20070;-88
2023/06/10 11:48:57;;;;;;;3.83;2.70;;;;;;;;;;4289270;33;20104;-85
2023/06/10 11:51:27;;;;;;;3.33;2.85;;;;;;;;;;4275460;33;20352;-84
2023/06/10 11:53:54;;;;;;;2.78;2.58;;;;;;;;;;4270760;33;20473;-86
2023/06/10 11:56:21;;;;;;;8.25;3.00;;;;;;;;;;4269507;33;20067;-86
2023/06/10 11:58:52;;;;;;;4.65;2.83;;;;;;;;;;4269792;33;20030;-78
2023/06/10 12:01:20;;;;;;;2.55;2.42;;;;;;;;;;4268296;33;20084;-83
2023/06/10 12:03:47;;;;;;;8.50;2.90;;;;;;;;;;4266886;33;20098;-86
2023/06/10 12:06:13;;;;;;;3.40;2.65;;;;;;;;;;4255951;33;20108;-83
2023/06/10 12:08:42;;;;;;;5.40;2.47;;;;;;;;;;4255494;33;20076;-86
2023/06/10 12:11:09;;;;;;;7.47;2.78;;;;;;;;;;4264623;33;20364;-82
2023/06/10 12:13:35;;;;;;;6.75;2.70;;;;;;;;;;4266287;33;20080;-84
2023/06/10 12:16:08;;;;;;;3.62;2.65;;;;;;;;;;4258418;33;20057;-86
2023/06/10 12:18:35;;;;;;;7.82;2.47;;;;;;;;;;4259969;33;20046;-86
2023/06/10 12:21:01;;;;;;;4.00;2.72;;;;;;;;;;4293727;33;20105;-83
2023/06/10 12:23:27;;;;;;;7.22;2.28;;;;;;;;;;4286432;33;20107;-86
2023/06/10 12:25:54;;;;;;;4.10;2.62;;;;;;;;;;4273624;33;20041;-84
2023/06/10 12:28:21;;;;;;;9.20;3.05;;;;;;;;;;4266242;33;20096;-85
2023/06/10 12:30:47;;;;;;;6.37;3.15;;;;;;;;;;4264482;33;20046;-79
2023/06/10 12:33:17;;;;;;;2.20;2.10;;;;;;;;;;4266874;33;20329;-86
2023/06/10 12:35:51;;;;;;;3.37;3.08;;;;;;;;;;4270909;33;20088;-87
2023/06/10 12:38:32;;;;;;;9.10;3.05;;;;;;;;;;4275607;33;20474;-86
2023/06/10 12:41:02;;;;;;;2.90;2.45;;;;;;;;;;4266483;33;20178;-87
2023/06/10 12:43:30;;;;;;;13.87;3.33;;;;;;;;;;4271941;33;20394;-86
2023/06/10 12:46:08;;;;;;;3.70;2.40;;;;;;;;;;4282400;33;20041;-83
2023/06/10 12:48:51;;;;;;;5.03;3.00;;;;;;;;;;4282556;33;20530;-83
2023/06/10 12:51:18;;;;;;;7.35;2.35;;;;;;;;;;4281861;33;20045;-86
2023/06/10 12:53:45;;;;;;;7.90;2.67;;;;;;;;;;4280002;33;20038;-87
2023/06/10 12:56:12;;;;;;;7.40;3.55;;;;;;;;;;4279368;33;20059;-89
2023/06/10 12:58:38;;;;;;;4.43;2.80;;;;;;;;;;4281284;33;20579;-87
2023/06/10 13:01:06;;;;;;;6.03;2.87;;;;;;;;;;4293391;33;20067;-88
2023/06/10 13:03:34;;;;;;;6.37;2.97;;;;;;;;;;4301028;33;20045;-88
2023/06/10 13:06:02;;;;;;;6.95;3.20;;;;;;;;;;4303074;33;20535;-87
2023/06/10 13:08:30;;;;;;;5.20;2.37;;;;;;;;;;4295387;33;20091;-85
2023/06/10 13:10:57;;;;;;;8.88;2.95;;;;;;;;;;4279154;33;20335;-86
2023/06/10 13:13:24;;;;;;;2.67;2.47;;;;;;;;;;4279949;33;20053;-85
2023/06/10 13:15:50;;;;;;;6.60;2.80;;;;;;;;;;4278480;33;20404;-84
2023/06/10 13:18:18;;;;;;;5.75;2.72;;;;;;;;;;4279070;33;20046;-86
2023/06/10 13:20:46;;;;;;;5.35;3.35;;;;;;;;;;4275989;33;20495;-88
2023/06/10 13:23:13;;;;;;;3.42;3.12;;;;;;;;;;4279045;33;20061;-85
2023/06/10 13:25:40;;;;;;;7.65;2.78;;;;;;;;;;4279373;33;20488;-83
2023/06/10 13:28:07;;;;;;;5.75;3.80;;;;;;;;;;4248969;33;20089;-85
2023/06/10 13:30:33;;;;;;;5.50;2.42;;;;;;;;;;4247989;33;20046;-76
2023/06/10 13:33:00;;;;;;;5.15;2.58;;;;;;;;;;4251689;33;20062;-82
2023/06/10 13:35:26;;;;;;;12.65;2.60;;;;;;;;;;4251647;33;20493;-85
2023/06/10 13:37:54;;;;;;;2.92;2.70;;;;;;;;;;4251592;33;20068;-84
2023/06/10 13:40:20;;;;;;;5.60;2.33;;;;;;;;;;4250235;33;20490;-85
2023/06/10 13:42:50;;;;;;;6.28;2.72;;;;;;;;;;4249122;33;20050;-85
2023/06/10 13:45:22;;;;;;;4.40;2.80;;;;;;;;;;4251474;33;20061;-84
2023/06/10 13:47:51;;;;;;;2.87;2.67;;;;;;;;;;4254392;33;20834;-82
2023/06/10 13:50:17;;;;;;;7.37;2.90;;;;;;;;;;4265452;33;20055;-85
2023/06/10 13:52:45;;;;;;;5.53;3.50;;;;;;;;;;4263145;33;20879;-83
2023/06/10 13:55:16;;;;;;;2.80;2.60;;;;;;;;;;4273105;33;20313;-85
2023/06/10 13:57:43;;;;;;;4.65;3.00;;;;;;;;;;4273334;33;20046;-83
2023/06/10 14:00:11;;;;;;;7.28;3.00;;;;;;;;;;4307063;33;20070;-87
2023/06/10 14:02:46;;;;;;;5.82;2.92;;;;;;;;;;4297331;33;20083;-84
2023/06/10 14:05:16;;;;;;;6.78;2.78;;;;;;;;;;4298819;33;20057;-83
2023/06/10 14:07:43;;;;;;;4.10;2.50;;;;;;;;;;4299212;33;20095;-81
2023/06/10 14:10:10;;;;;;;7.25;4.03;;;;;;;;;;4299384;33;20432;-87
2023/06/10 14:12:37;;;;;;;2.80;2.60;;;;;;;;;;4300416;33;20054;-84
2023/06/10 14:15:03;;;;;;;5.45;2.50;;;;;;;;;;4301245;33;20449;-82
2023/06/10 14:17:30;;;;;;;5.18;3.22;;;;;;;;;;4308115;33;20116;-85
2023/06/10 14:19:57;;;;;;;4.37;3.20;;;;;;;;;;4301254;33;20657;-80
2023/06/10 14:22:24;;;;;;;4.28;2.83;;;;;;;;;;4299165;33;20110;-82
2023/06/10 14:24:54;;;;;;;5.53;2.22;;;;;;;;;;4309867;33;20062;-80
2023/06/10 14:27:24;;;;;;;7.62;3.00;;;;;;;;;;4299080;33;20078;-83
2023/06/10 14:29:51;;;;;;;6.05;2.47;;;;;;;;;;4305804;33;20165;-88
2023/06/10 14:32:18;;;;;;;4.90;2.60;;;;;;;;;;4296089;33;20057;-81
2023/06/10 14:34:46;;;;;;;5.37;2.75;;;;;;;;;;4300405;33;20049;-78
2023/06/10 14:37:17;;;;;;;2.83;2.58;;;;;;;;;;4297178;33;20329;-82
2023/06/10 14:39:43;;;;;;;3.35;2.97;;;;;;;;;;4297066;33;20057;-85
2023/06/10 14:42:13;;;;;;;4.43;2.90;;;;;;;;;;4303726;33;20063;-87
2023/06/10 14:44:39;;;;;;;7.47;2.70;;;;;;;;;;4313775;33;20376;-84
2023/06/10 14:47:10;;;;;;;2.72;2.53;;;;;;;;;;4308256;33;20067;-87
2023/06/10 14:49:36;;;;;;;3.92;2.97;;;;;;;;;;4310348;33;20418;-87
2023/06/10 14:52:02;;;;;;;2.62;2.42;;;;;;;;;;4310227;33;20179;-86
2023/06/10 14:54:28;;;;;;;4.12;2.60;;;;;;;;;;4297331;33;20056;-85
2023/06/10 14:56:55;;;;;;;4.53;2.92;;;;;;;;;;4296057;33;20062;-83
2023/06/10 14:59:21;;;;;;;4.72;2.35;;;;;;;;;;4296345;33;20061;-81
2023/06/10 15:01:53;;;;;;;3.67;2.50;;;;;;;;;;4295232;33;20057;-88
2023/06/10 15:04:19;;;;;;;4.53;2.80;;;;;;;;;;4296481;33;20041;-83
2023/06/10 15:06:50;;;;;;;4.43;3.22;;;;;;;;;;4296982;33;20065;-85
2023/06/10 15:09:17;;;;;;;4.80;3.25;;;;;;;;;;4306352;33;20049;-84
2023/06/10 15:11:44;;;;;;;2.85;2.42;;;;;;;;;;4309282;33;20466;-88
2023/06/10 15:14:10;;;;;;;3.22;2.50;;;;;;;;;;4296270;33;20563;-84
2023/06/10 15:16:36;;;;;;;2.80;2.60;;;;;;;;;;4295607;33;20069;-85
2023/06/10 15:19:03;;;;;;;10.00;2.40;;;;;;;;;;4295061;33;20074;-77
2023/06/10 15:21:29;;;;;;;3.15;2.83;;;;;;;;;;4296799;33;20406;-83
2023/06/10 15:23:55;;;;;;;3.87;2.70;;;;;;;;;;4265532;33;20132;-84
2023/06/10 15:26:22;;;;;;;11.15;2.78;;;;;;;;;;4266197;33;20054;-84
2023/06/10 15:28:47;;;;;;;9.60;2.78;;;;;;;;;;4264789;33;20045;-82
2023/06/10 15:31:14;;;;;;;3.17;2.28;;;;;;;;;;4250628;33;20066;-77
2023/06/10 15:33:40;;;;;;;4.35;2.67;;;;;;;;;;4263677;33;20114;-85
2023/06/10 15:36:06;;;;;;;2.45;2.30;;;;;;;;;;4252768;33;20960;-80
2023/06/10 15:38:32;;;;;;;3.42;2.90;;;;;;;;;;4254212;33;20113;-79
2023/06/10 15:40:59;;;;;;;5.60;2.40;;;;;;;;;;4259124;33;20064;-80
2023/06/10 15:43:25;;;;;;;3.95;2.28;;;;;;;;;;4257933;33;20060;-78
2023/06/10 15:45:51;;;;;;;4.53;2.67;;;;;;;;;;4259331;33;20182;-83
2023/06/10 15:48:17;;;;;;;3.80;3.10;;;;;;;;;;4257991;33;21014;-82
2023/06/10 15:50:45;;;;;;;2.90;2.70;;;;;;;;;;4247398;33;20088;-82
2023/06/10 15:53:11;;;;;;;4.97;3.00;;;;;;;;;;4237188;33;20158;-86
2023/06/10 15:55:37;;;;;;;3.22;2.97;;;;;;;;;;4242332;33;20062;-86
2023/06/10 15:58:03;;;;;;;3.62;2.83;;;;;;;;;;4248689;33;20033;-87
2023/06/10 16:00:30;;;;;;;4.95;3.40;;;;;;;;;;4246622;33;20059;-83
2023/06/10 16:02:56;;;;;;;3.08;2.78;;;;;;;;;;4243711;33;20071;-86
2023/06/10 16:05:22;;;;;;;3.45;2.62;;;;;;;;;;4241416;33;20054;-87
2023/06/10 16:07:48;;;;;;;4.22;3.37;;;;;;;;;;4260941;33;20403;-85
2023/06/10 16:10:15;;;;;;;11.25;3.67;;;;;;;;;;4244554;33;20121;-84
2023/06/10 16:12:40;;;;;;;8.52;3.03;;;;;;;;;;4210886;34;20597;-86
2023/06/10 16:15:07;;;;;;;4.80;3.10;;;;;;;;;;4211655;34;20077;-83
2023/06/10 16:17:33;;;;;;;11.82;3.22;;;;;;;;;;4208381;34;20061;-86
2023/06/10 16:19:59;;;;;;;2.78;2.47;;;;;;;;;;4218833;34;20059;-85
2023/06/10 16:22:25;;;;;;;3.42;2.60;;;;;;;;;;4229758;33;20050;-78
2023/06/10 16:24:52;;;;;;;3.58;2.55;;;;;;;;;;4246960;33;20058;-82
2023/06/10 16:27:19;;;;;;;7.15;3.28;;;;;;;;;;4241625;33;20049;-80
2023/06/10 16:29:45;;;;;;;7.00;3.25;;;;;;;;;;4241770;33;20058;-78
2023/06/10 16:32:11;;;;;;;9.20;3.35;;;;;;;;;;4246822;33;20034;-80
2023/06/10 16:34:38;;;;;;;3.50;3.20;;;;;;;;;;4224980;33;20075;-76
2023/06/10 16:37:03;;;;;;;7.55;2.90;;;;;;;;;;4229605;33;20038;-80
2023/06/10 16:39:30;;;;;;;6.57;3.08;;;;;;;;;;4222838;33;20080;-79
2023/06/10 16:41:56;;;;;;;5.95;3.30;;;;;;;;;;4235741;33;20524;-84